Terminal Aerodrome Forecast
Issued by NWS Cleveland, OH

Home | Current Version | Previous Version | Text Only | Print | Product List | Glossary Off
Versions: 1 2 3 4 5 6 7 8 9 10 11 12 13 14 15 16 17 18 19 20 21 22

000
FTUS41 KCLE 241100
TAFMFD
TAF
KMFD 241139Z 2412/2512 20007KT P6SM SCT200
     FM241500 21015G25KT P6SM SCT040 OVC120
     FM250000 24012G22KT 6SM -SN BKN030
     FM250900 25008KT 4SM -SHSN BKN012 OVC020=

USA.gov is the U.S. government's official web portal to all federal, state and local government web resources and services.